UNR Ag. Experiment Farm, Sparks, Nevada Weather observations

Data are for 10 minute period ending at time listed.
 Day   Time   Solar   Ave.   Ave.  Ave.  Vector  Max.   Baro.   Total    
  of    of     Rad.   Air    Rel.  Wind   Wind   Wind  Press.  Precip.   
Year   Day            Temp.  Hum.  Speed  Dir.   Gust                    
2017   (PST)  Kw/m2    F      %     mph   deg.    mph    mb.     in.     
-------------------------------------------------------------------------
  35   21:00   0.00   39.5    67    2.0   286     5.0   864.7    0.00 
  35   21:10   0.00   38.9    66    4.4   325     5.8   864.7    0.00 
  35   21:20   0.00   37.8    69    4.2   350     5.5   864.8    0.00 
  35   21:30   0.00   39.3    66    4.9   343     5.6   864.9    0.00 
  35   21:40   0.00   38.8    69    1.4    88     4.4   865.1    0.00 
  35   21:50   0.00   38.7    72    2.4   102     3.9   865.2    0.00 
  35   22:00   0.00   40.0    67    2.6    74     4.6   865.1    0.00 
  35   22:10   0.00   40.1    66    3.0   100     5.0   865.1    0.00 
  35   22:20   0.00   39.4    72    1.4   143     4.9   865.1    0.00 
  35   22:30   0.00   38.3    73    1.9   269     4.5   865.2    0.00 
  35   22:40   0.00   39.7    67    4.0   230     6.8   865.3    0.00 
  35   22:50   0.00   39.5    69    3.0   243     4.9   865.1    0.00 
  35   23:00   0.00   39.2    69    3.5   210     5.1   865.0    0.00 
  35   23:10   0.00   37.8    71    2.4   208     4.5   865.1    0.00 
  35   23:20   0.00   37.8    71    1.9   271     3.4   865.1    0.00 
  35   23:30   0.00   36.4    72    4.1   333     6.4   865.3    0.00 
  35   23:40   0.00   35.6    75    5.9   349     7.1   865.5    0.00 
  35   23:50   0.00   36.6    73    3.6   349     6.3   865.5    0.00 
  36    0:00   0.00   35.8    76    3.3    80     5.4   865.4    0.00 
  36    0:10   0.00   36.5    75    2.4    70     5.3   865.3    0.00 
  36    0:20   0.00   37.9    71    3.8    44     5.1   865.2    0.00 
  36    0:30   0.00   38.8    67    3.8    36     5.5   865.2    0.00 
  36    0:40   0.00   36.7    74    3.2    99     4.7   865.0    0.00 
  36    0:50   0.00   35.5    75    2.3    54     4.8   864.9    0.00 
  36    1:00   0.00   34.1    78    1.8   315     2.9   864.8    0.00 
  36    1:10   0.00   34.0    77    3.6   311     4.2   864.8    0.00 
  36    1:20   0.00   34.1    78    3.9   307     5.3   864.8    0.00 
  36    1:30   0.00   34.8    78    3.7    64     6.4   864.8    0.00 
  36    1:40   0.00   34.2    77    2.2    51     4.2   864.8    0.00 
  36    1:50   0.00   33.6    82    2.1   232     3.9   864.7    0.00 
  36    2:00   0.00   34.3    82    1.1   263     2.2   864.5    0.00 
  36    2:10   0.00   34.5    80    2.6   238     3.5   864.6    0.00 
  36    2:20   0.00   34.3    81    3.2   259     4.0   864.6    0.00 
  36    2:30   0.00   35.0    77    2.0   252     3.3   864.6    0.00 
  36    2:40   0.00   33.2    81    2.8   147     4.5   864.5    0.00 
  36    2:50   0.00   32.4    86    3.5   174     5.0   864.5    0.00 
  36    3:00   0.00   32.4    86    1.9   197     3.6   864.4    0.00 
  36    3:10   0.00   31.9    87    1.9   182     3.7   864.3    0.00 
  36    3:20   0.00   32.2    87    1.4   202     2.9   864.2    0.00 
  36    3:30   0.00   32.6    87    1.4   243     3.3   864.2    0.00 
  36    3:40   0.00   31.4    85    1.6    16     4.2   864.1    0.00 
  36    3:50   0.00   29.9    87    1.0   108     2.7   864.0    0.00 
  36    4:00   0.00   29.9    88    0.7    13     3.1   863.9    0.00 
  36    4:10   0.00   30.0    87    1.5     9     2.4   863.8    0.00 
  36    4:20   0.00   29.5    90    0.7   198     2.1   863.6    0.00 
  36    4:30   0.00   30.4    91    3.6   202     5.3   863.6    0.00 
  36    4:40   0.00   30.4    91    2.0   149     4.1   863.6    0.00 
  36    4:50   0.00   29.6    91    2.3   353     3.8   863.6    0.00 
  36    5:00   0.00   30.3    90    2.5    48     4.1   863.5    0.00 
  36    5:10   0.00   30.4    90    1.7   295     7.4   863.6    0.00 
  36    5:20   0.00   29.7    89    1.2    84     3.5   863.6    0.00 
  36    5:30   0.00   30.2    91    3.0   115     6.4   863.5    0.00 
  36    5:40   0.00   29.9    91    3.6   188     5.1   863.3    0.00 
  36    5:50   0.00   29.7    91    2.3   245     4.2   863.3    0.00 
  36    6:00   0.00   27.5    91    1.6    12     4.1   863.2    0.00 
  36    6:10   0.00   28.1    93    2.8    37     7.0   863.2    0.00 
  36    6:20   0.00   28.4    93    1.8   124     3.5   863.3    0.00 
  36    6:30   0.00   29.0    93    2.8    88     5.0   863.1    0.00 
  36    6:40   0.00   29.3    92    2.4   260     4.2   863.2    0.00 
  36    6:50   0.00   29.4    93    2.9   256     3.9   863.2    0.00 
  36    7:00   0.00   28.6    92    1.0   312     2.7   863.1    0.00 
  36    7:10   0.00   27.6    91    3.1   333     4.7   863.1    0.00 
  36    7:20   0.01   27.5    92    2.6   132     4.8   863.0    0.00 
  36    7:30   0.02   28.7    93    2.8   117     5.1   863.0    0.00 
  36    7:40   0.04   28.5    92    1.7   288     4.0   863.0    0.00 
  36    7:50   0.07   27.9    93    3.1    72     5.4   863.0    0.00 
  36    8:00   0.11   30.4    94    2.8   108     5.4   863.1    0.00 
  36    8:10   0.12   32.1    92    0.6   215     1.8   863.1    0.00 
  36    8:20   0.14   32.5    91    1.2   325     2.6   863.0    0.00 
  36    8:30   0.19   33.7    91    0.1   336     0.9   862.9    0.00 
  36    8:40   0.20   35.2    87    1.8     0     3.8   862.8    0.00 
  36    8:50   0.23   35.3    83    1.6   353     2.8   862.8    0.00 
  36    9:00   0.27   36.9    78    0.9    43     1.9   862.9    0.00 
  36    9:10   0.26   37.8    76    2.2    93     4.2   862.8    0.00 
  36    9:20   0.27   37.7    77    3.2    86     4.7   862.5    0.00 
  36    9:30   0.32   38.1    75    2.2    56     3.9   862.3    0.00 
  36    9:40   0.38   39.0    72    1.4     5     4.5   862.3    0.00 
  36    9:50   0.29   40.5    68    1.6    55     3.9   862.2    0.00 
  36   10:00   0.32   40.9    67    1.5    31     3.1   862.1    0.00 
  36   10:10   0.36   42.6    62    1.6    81     3.9   862.0    0.00 
  36   10:20   0.37   43.2    61    1.3   133     4.6   861.9    0.00 
  36   10:30   0.41   44.0    60    1.6   203     4.3   861.8    0.00 
  36   10:40   0.46   44.7    56    1.8   310     4.9   861.6    0.00 
  36   10:50   0.50   46.1    55    4.1    33     8.9   861.3    0.00 
  36   11:00   0.46   47.9    51    4.3    25     8.3   861.0    0.00 
  36   11:10   0.42   50.6    43    9.6   170    23.8   860.6    0.00 
  36   11:20   0.48   54.4    35   19.9   192    30.0   860.3    0.00 
  36   11:30   0.53   54.5    35   19.8   196    30.0   860.1    0.00 
  36   11:40   0.53   54.4    36   21.1   194    28.8   859.8    0.00 
  36   11:50   0.60   54.2    36   22.2   185    29.8   859.5    0.00 
  36   12:00   0.59   54.3    36   21.3   190    29.5   859.3    0.00 
  36   12:10   0.60   54.5    38   19.5   180    28.5   859.1    0.00 
  36   12:20   0.62   54.9    37   17.4   182    26.8   858.9    0.00 
  36   12:30   0.59   54.8    37   16.2   173    22.8   858.6    0.00 
  36   12:40   0.57   54.8    37   16.9   169    24.8   858.2    0.00 
  36   12:50   0.56   55.0    36   16.4   174    22.1   858.0    0.00 
  36   13:00   0.56   55.5    35   14.2   175    21.3   857.8    0.00 
  36   13:10   0.55   56.0    36   14.6   168    24.1   857.4    0.00 
  36   13:20   0.55   56.0    35   15.7   164    23.8   857.2    0.00 
  36   13:30   0.53   56.1    34   16.5   164    22.3   857.0    0.00 
  36   13:40   0.57   57.0    33   16.0   171    21.5   856.7    0.00 
  36   13:50   0.54   57.5    33   16.3   173    23.8   856.5    0.00 
  36   14:00   0.52   57.4    32   15.2   174    24.6   856.3    0.00 
  36   14:10   0.53   57.6    33   14.5   169    31.4   856.2    0.00 
  36   14:20   0.41   57.6    32   14.8   189    22.4   856.2    0.00 
  36   14:30   0.39   57.6    32   13.4   213    20.9   856.0    0.00 
  36   14:40   0.43   57.8    32   15.3   205    27.1   855.9    0.00 
  36   14:50   0.45   57.0    32   19.3   212    28.1   855.8    0.00 
  36   15:00   0.46   57.1    30   17.7   210    26.5   855.7    0.00 
  36   15:10   0.50   57.7    28   18.8   206    33.5   855.5    0.00 
  36   15:20   0.47   57.6    26   19.2   200    28.9   855.3    0.00 
  36   15:30   0.42   57.5    26   18.0   198    32.2   855.1    0.00 
  36   15:40   0.38   57.0    27   17.5   203    27.2   855.0    0.00 
  36   15:50   0.38   56.4    28   18.8   203    26.6   855.1    0.00 
  36   16:00   0.34   56.3    28   16.8   206    23.8   855.0    0.00 
  36   16:10   0.28   55.9    28   16.9   206    29.5   854.9    0.00 
  36   16:20   0.22   55.6    29   15.3   205    23.2   854.8    0.00 
  36   16:30   0.18   55.3    28   15.6   196    21.2   854.5    0.00 
  36   16:40   0.10   54.6    27   18.3   198    27.9   854.5    0.00 
  36   16:50   0.04   53.7    26   21.7   198    30.1   854.6    0.00 
  36   17:00   0.03   53.1    26   22.0   201    33.0   854.4    0.00 
  36   17:10   0.03   52.4    27   21.0   206    28.4   854.2    0.00 
  36   17:20   0.02   51.9    29   18.9   212    26.6   854.4    0.00 
  36   17:30   0.01   51.6    26   20.6   212    34.0   854.4    0.00 
  36   17:40   0.00   50.8    27   20.2   204    29.6   854.4    0.00 
  36   17:50   0.00   49.9    29   17.4   198    23.8   854.3    0.00 
  36   18:00   0.00   49.4    30   15.4   193    21.8   854.0    0.00 
  36   18:10   0.00   49.0    31   13.2   195    19.4   853.6    0.00 
  36   18:20   0.00   48.8    30   10.1   198    17.8   853.4    0.00 
  36   18:30   0.00   49.0    28    8.5   173    21.4   852.9    0.00 
  36   18:40   0.00   49.7    24   13.5   177    23.4   852.8    0.00 
  36   18:50   0.00   50.1    23   18.7   181    29.3   852.8    0.00 
  36   19:00   0.00   49.8    24   18.0   172    33.0   852.7    0.00 
  36   19:10   0.00   49.6    30   25.2   175    38.4   852.7    0.00 
  36   19:20   0.00   48.6    36   25.1   183    36.5   853.0    0.00 
  36   19:30   0.00   47.2    40   25.4   200    38.2   853.4    0.00 
  36   19:40   0.00   44.8    50   20.9   201    33.8   853.8    0.00 
  36   19:50   0.00   42.1    62   25.5   196    38.7   852.7    0.00 
  36   20:00   0.00   43.7    54   28.4   192    43.0   852.6    0.00 
  36   20:10   0.00   43.7    55   29.3   196    43.1   852.7    0.00 
  36   20:20   0.00   42.6    61   24.0   192    40.7   852.9    0.00 
  36   20:30   0.00   41.2    69   20.7   199    30.0   853.0    0.00 
  36   20:40   0.00   40.3    72   22.4   191    31.4   853.1    0.00 
  36   20:50   0.00   39.1    77   17.3   189    28.5   853.4    0.00 

Return to Sparks, Nevada, UNR Ag Experiment Farm graphs page.


Western Regional Climate Center,wrcc@dri.edu